sensor_id;sensor_type;location;lat;lon;timestamp;P1;durP1;ratioP1;P2;durP2;ratioP2
10347;SDS011;5220;43.192;23.284;2022-12-29T00:04:15;5.27;;;4.27;;
10347;SDS011;5220;43.192;23.284;2022-12-29T00:06:42;6.83;;;4.20;;
10347;SDS011;5220;43.192;23.284;2022-12-29T00:09:10;4.50;;;3.60;;
10347;SDS011;5220;43.192;23.284;2022-12-29T00:11:36;6.73;;;4.70;;
10347;SDS011;5220;43.192;23.284;2022-12-29T00:14:03;5.53;;;4.10;;
10347;SDS011;5220;43.192;23.284;2022-12-29T00:16:48;5.13;;;3.87;;
10347;SDS011;5220;43.192;23.284;2022-12-29T00:19:16;5.43;;;3.83;;
10347;SDS011;5220;43.192;23.284;2022-12-29T00:22:00;6.93;;;4.50;;
10347;SDS011;5220;43.192;23.284;2022-12-29T00:24:44;5.00;;;3.80;;
10347;SDS011;5220;43.192;23.284;2022-12-29T00:27:25;8.40;;;4.33;;
10347;SDS011;5220;43.192;23.284;2022-12-29T00:30:18;5.17;;;3.87;;
10347;SDS011;5220;43.192;23.284;2022-12-29T00:33:08;5.27;;;3.77;;
10347;SDS011;5220;43.192;23.284;2022-12-29T00:35:55;5.90;;;3.70;;
10347;SDS011;5220;43.192;23.284;2022-12-29T00:38:26;5.13;;;3.53;;
10347;SDS011;5220;43.192;23.284;2022-12-29T00:44:33;5.20;;;3.70;;
10347;SDS011;5220;43.192;23.284;2022-12-29T00:46:59;5.80;;;4.20;;
10347;SDS011;5220;43.192;23.284;2022-12-29T00:49:29;7.90;;;4.07;;
10347;SDS011;5220;43.192;23.284;2022-12-29T00:51:57;5.83;;;3.83;;
10347;SDS011;5220;43.192;23.284;2022-12-29T00:54:26;6.50;;;4.00;;
10347;SDS011;5220;43.192;23.284;2022-12-29T00:56:53;6.00;;;3.80;;
10347;SDS011;5220;43.192;23.284;2022-12-29T00:59:20;4.90;;;3.73;;
10347;SDS011;5220;43.192;23.284;2022-12-29T01:01:49;5.83;;;3.97;;
10347;SDS011;5220;43.192;23.284;2022-12-29T01:04:17;5.27;;;4.00;;
10347;SDS011;5220;43.192;23.284;2022-12-29T01:06:44;8.50;;;3.80;;
10347;SDS011;5220;43.192;23.284;2022-12-29T01:09:13;7.03;;;3.83;;
10347;SDS011;5220;43.192;23.284;2022-12-29T01:11:57;5.83;;;4.17;;
10347;SDS011;5220;43.192;23.284;2022-12-29T01:14:24;7.90;;;4.43;;
10347;SDS011;5220;43.192;23.284;2022-12-29T01:16:51;7.20;;;4.93;;
10347;SDS011;5220;43.192;23.284;2022-12-29T01:19:18;7.93;;;4.87;;
10347;SDS011;5220;43.192;23.284;2022-12-29T01:21:45;8.17;;;5.10;;
10347;SDS011;5220;43.192;23.284;2022-12-29T01:24:14;7.63;;;5.97;;
10347;SDS011;5220;43.192;23.284;2022-12-29T01:26:42;8.80;;;6.20;;
10347;SDS011;5220;43.192;23.284;2022-12-29T01:29:09;7.20;;;4.70;;
10347;SDS011;5220;43.192;23.284;2022-12-29T01:31:36;6.40;;;4.17;;
10347;SDS011;5220;43.192;23.284;2022-12-29T01:34:03;4.10;;;3.60;;
10347;SDS011;5220;43.192;23.284;2022-12-29T01:36:30;5.00;;;4.10;;
10347;SDS011;5220;43.192;23.284;2022-12-29T01:38:56;6.87;;;4.27;;
10347;SDS011;5220;43.192;23.284;2022-12-29T01:44:48;5.43;;;3.87;;
10347;SDS011;5220;43.192;23.284;2022-12-29T01:47:19;5.40;;;3.87;;
10347;SDS011;5220;43.192;23.284;2022-12-29T01:49:51;4.50;;;3.43;;
10347;SDS011;5220;43.192;23.284;2022-12-29T01:52:20;6.67;;;3.70;;
10347;SDS011;5220;43.192;23.284;2022-12-29T01:54:50;6.67;;;4.27;;
10347;SDS011;5220;43.192;23.284;2022-12-29T01:57:20;5.80;;;4.43;;
10347;SDS011;5220;43.192;23.284;2022-12-29T01:59:53;7.47;;;4.27;;
10347;SDS011;5220;43.192;23.284;2022-12-29T02:02:24;5.80;;;3.43;;
10347;SDS011;5220;43.192;23.284;2022-12-29T02:04:51;7.17;;;3.67;;
10347;SDS011;5220;43.192;23.284;2022-12-29T02:07:21;8.57;;;4.30;;
10347;SDS011;5220;43.192;23.284;2022-12-29T02:09:51;6.10;;;4.27;;
10347;SDS011;5220;43.192;23.284;2022-12-29T02:12:20;8.37;;;4.70;;
10347;SDS011;5220;43.192;23.284;2022-12-29T02:14:49;6.93;;;4.20;;
10347;SDS011;5220;43.192;23.284;2022-12-29T02:17:23;6.80;;;4.40;;
10347;SDS011;5220;43.192;23.284;2022-12-29T02:20:11;6.73;;;4.07;;
10347;SDS011;5220;43.192;23.284;2022-12-29T02:23:41;6.53;;;3.80;;
10347;SDS011;5220;43.192;23.284;2022-12-29T02:26:36;6.93;;;4.03;;
10347;SDS011;5220;43.192;23.284;2022-12-29T02:32:17;10.17;;;4.03;;
10347;SDS011;5220;43.192;23.284;2022-12-29T02:34:52;6.57;;;4.23;;
10347;SDS011;5220;43.192;23.284;2022-12-29T02:37:28;7.93;;;4.73;;
10347;SDS011;5220;43.192;23.284;2022-12-29T02:40:03;11.30;;;4.40;;
10347;SDS011;5220;43.192;23.284;2022-12-29T02:42:40;5.67;;;4.07;;
10347;SDS011;5220;43.192;23.284;2022-12-29T02:45:15;5.63;;;4.17;;
10347;SDS011;5220;43.192;23.284;2022-12-29T02:47:48;9.73;;;4.70;;
10347;SDS011;5220;43.192;23.284;2022-12-29T02:53:43;4.63;;;3.63;;
10347;SDS011;5220;43.192;23.284;2022-12-29T02:56:28;4.17;;;3.50;;
10347;SDS011;5220;43.192;23.284;2022-12-29T02:58:55;5.77;;;3.63;;
10347;SDS011;5220;43.192;23.284;2022-12-29T03:04:47;5.60;;;3.83;;
10347;SDS011;5220;43.192;23.284;2022-12-29T03:07:27;6.17;;;4.03;;
10347;SDS011;5220;43.192;23.284;2022-12-29T03:10:04;5.00;;;3.93;;
10347;SDS011;5220;43.192;23.284;2022-12-29T03:12:42;6.27;;;4.53;;
10347;SDS011;5220;43.192;23.284;2022-12-29T03:15:33;11.30;;;6.13;;
10347;SDS011;5220;43.192;23.284;2022-12-29T03:18:24;12.03;;;5.33;;
10347;SDS011;5220;43.192;23.284;2022-12-29T03:24:22;9.10;;;5.33;;
10347;SDS011;5220;43.192;23.284;2022-12-29T03:26:54;8.67;;;5.53;;
10347;SDS011;5220;43.192;23.284;2022-12-29T03:29:23;12.87;;;5.83;;
10347;SDS011;5220;43.192;23.284;2022-12-29T03:31:50;9.33;;;5.23;;
10347;SDS011;5220;43.192;23.284;2022-12-29T03:34:20;8.97;;;4.70;;
10347;SDS011;5220;43.192;23.284;2022-12-29T03:36:49;6.33;;;4.80;;
10347;SDS011;5220;43.192;23.284;2022-12-29T03:39:22;8.37;;;5.30;;
10347;SDS011;5220;43.192;23.284;2022-12-29T03:41:50;11.70;;;6.00;;
10347;SDS011;5220;43.192;23.284;2022-12-29T03:44:30;12.60;;;6.80;;
10347;SDS011;5220;43.192;23.284;2022-12-29T03:46:58;9.73;;;6.00;;
10347;SDS011;5220;43.192;23.284;2022-12-29T03:49:25;10.00;;;5.80;;
10347;SDS011;5220;43.192;23.284;2022-12-29T03:51:51;9.73;;;5.60;;
10347;SDS011;5220;43.192;23.284;2022-12-29T03:54:18;5.67;;;4.23;;
10347;SDS011;5220;43.192;23.284;2022-12-29T03:56:46;6.67;;;4.43;;
10347;SDS011;5220;43.192;23.284;2022-12-29T03:59:13;7.43;;;4.90;;
10347;SDS011;5220;43.192;23.284;2022-12-29T04:01:40;7.70;;;5.00;;
10347;SDS011;5220;43.192;23.284;2022-12-29T04:04:07;11.87;;;6.47;;
10347;SDS011;5220;43.192;23.284;2022-12-29T04:06:33;13.60;;;7.17;;
10347;SDS011;5220;43.192;23.284;2022-12-29T04:09:00;9.93;;;6.50;;
10347;SDS011;5220;43.192;23.284;2022-12-29T04:11:27;8.70;;;5.70;;
10347;SDS011;5220;43.192;23.284;2022-12-29T04:13:56;9.60;;;6.53;;
10347;SDS011;5220;43.192;23.284;2022-12-29T04:16:22;8.33;;;5.13;;
10347;SDS011;5220;43.192;23.284;2022-12-29T04:18:49;8.80;;;5.07;;
10347;SDS011;5220;43.192;23.284;2022-12-29T04:21:16;7.07;;;4.13;;
10347;SDS011;5220;43.192;23.284;2022-12-29T04:23:42;7.57;;;4.13;;
10347;SDS011;5220;43.192;23.284;2022-12-29T04:26:10;10.63;;;4.10;;
10347;SDS011;5220;43.192;23.284;2022-12-29T04:28:36;6.60;;;4.53;;
10347;SDS011;5220;43.192;23.284;2022-12-29T04:34:26;6.63;;;4.10;;
10347;SDS011;5220;43.192;23.284;2022-12-29T04:36:52;4.37;;;3.37;;
10347;SDS011;5220;43.192;23.284;2022-12-29T04:39:19;5.57;;;3.80;;
10347;SDS011;5220;43.192;23.284;2022-12-29T04:41:46;6.47;;;3.50;;
10347;SDS011;5220;43.192;23.284;2022-12-29T04:44:13;5.07;;;3.77;;
10347;SDS011;5220;43.192;23.284;2022-12-29T04:46:39;5.63;;;3.90;;
10347;SDS011;5220;43.192;23.284;2022-12-29T04:49:06;5.47;;;4.17;;
10347;SDS011;5220;43.192;23.284;2022-12-29T04:51:35;11.23;;;6.63;;
10347;SDS011;5220;43.192;23.284;2022-12-29T04:54:02;7.23;;;4.60;;
10347;SDS011;5220;43.192;23.284;2022-12-29T04:56:28;9.03;;;5.80;;
10347;SDS011;5220;43.192;23.284;2022-12-29T04:58:55;9.53;;;6.27;;
10347;SDS011;5220;43.192;23.284;2022-12-29T05:01:22;19.47;;;10.63;;
10347;SDS011;5220;43.192;23.284;2022-12-29T05:03:49;9.30;;;6.40;;
10347;SDS011;5220;43.192;23.284;2022-12-29T05:06:17;7.70;;;6.33;;
10347;SDS011;5220;43.192;23.284;2022-12-29T05:08:45;7.77;;;5.93;;
10347;SDS011;5220;43.192;23.284;2022-12-29T05:14:33;9.70;;;5.00;;
10347;SDS011;5220;43.192;23.284;2022-12-29T05:20:22;12.93;;;7.20;;
10347;SDS011;5220;43.192;23.284;2022-12-29T05:22:49;10.13;;;7.50;;
10347;SDS011;5220;43.192;23.284;2022-12-29T05:25:17;6.47;;;4.80;;
10347;SDS011;5220;43.192;23.284;2022-12-29T05:27:43;7.27;;;5.37;;
10347;SDS011;5220;43.192;23.284;2022-12-29T05:30:11;9.53;;;6.87;;
10347;SDS011;5220;43.192;23.284;2022-12-29T05:32:38;6.23;;;4.07;;
10347;SDS011;5220;43.192;23.284;2022-12-29T05:35:05;5.73;;;4.07;;
10347;SDS011;5220;43.192;23.284;2022-12-29T05:37:32;5.77;;;3.80;;
10347;SDS011;5220;43.192;23.284;2022-12-29T05:39:59;6.90;;;5.23;;
10347;SDS011;5220;43.192;23.284;2022-12-29T05:42:27;7.63;;;5.53;;
10347;SDS011;5220;43.192;23.284;2022-12-29T05:44:54;9.27;;;6.10;;
10347;SDS011;5220;43.192;23.284;2022-12-29T05:47:20;25.57;;;16.73;;
10347;SDS011;5220;43.192;23.284;2022-12-29T05:49:47;22.83;;;14.80;;
10347;SDS011;5220;43.192;23.284;2022-12-29T05:55:12;20.37;;;12.83;;
10347;SDS011;5220;43.192;23.284;2022-12-29T05:57:40;13.27;;;9.87;;
10347;SDS011;5220;43.192;23.284;2022-12-29T06:00:07;18.53;;;13.37;;
10347;SDS011;5220;43.192;23.284;2022-12-29T06:02:34;19.33;;;11.53;;
10347;SDS011;5220;43.192;23.284;2022-12-29T06:05:01;11.80;;;8.70;;
10347;SDS011;5220;43.192;23.284;2022-12-29T06:07:28;11.63;;;6.60;;
10347;SDS011;5220;43.192;23.284;2022-12-29T06:09:55;9.70;;;5.70;;
10347;SDS011;5220;43.192;23.284;2022-12-29T06:12:22;8.17;;;5.80;;
10347;SDS011;5220;43.192;23.284;2022-12-29T06:14:50;12.57;;;7.13;;
10347;SDS011;5220;43.192;23.284;2022-12-29T06:17:17;16.10;;;9.87;;
10347;SDS011;5220;43.192;23.284;2022-12-29T06:32:35;15.37;;;9.93;;
10347;SDS011;5220;43.192;23.284;2022-12-29T06:35:02;11.17;;;8.20;;
10347;SDS011;5220;43.192;23.284;2022-12-29T06:37:29;8.50;;;6.30;;
10347;SDS011;5220;43.192;23.284;2022-12-29T06:39:56;19.00;;;12.87;;
10347;SDS011;5220;43.192;23.284;2022-12-29T06:42:22;15.80;;;11.30;;
10347;SDS011;5220;43.192;23.284;2022-12-29T06:44:49;18.87;;;10.53;;
10347;SDS011;5220;43.192;23.284;2022-12-29T06:47:17;13.23;;;8.47;;
10347;SDS011;5220;43.192;23.284;2022-12-29T06:49:45;13.23;;;8.67;;
10347;SDS011;5220;43.192;23.284;2022-12-29T06:52:12;12.67;;;7.77;;
10347;SDS011;5220;43.192;23.284;2022-12-29T06:54:39;10.80;;;8.37;;
10347;SDS011;5220;43.192;23.284;2022-12-29T06:57:05;15.83;;;10.50;;
10347;SDS011;5220;43.192;23.284;2022-12-29T06:59:32;15.80;;;11.60;;
10347;SDS011;5220;43.192;23.284;2022-12-29T07:01:59;14.93;;;11.33;;
10347;SDS011;5220;43.192;23.284;2022-12-29T07:07:50;10.47;;;7.07;;
10347;SDS011;5220;43.192;23.284;2022-12-29T07:10:17;9.33;;;6.57;;
10347;SDS011;5220;43.192;23.284;2022-12-29T07:12:44;8.80;;;5.80;;
10347;SDS011;5220;43.192;23.284;2022-12-29T07:15:11;13.33;;;8.93;;
10347;SDS011;5220;43.192;23.284;2022-12-29T07:17:38;17.73;;;11.03;;
10347;SDS011;5220;43.192;23.284;2022-12-29T07:20:05;15.87;;;11.00;;
10347;SDS011;5220;43.192;23.284;2022-12-29T07:22:33;16.93;;;9.37;;
10347;SDS011;5220;43.192;23.284;2022-12-29T07:25:01;14.90;;;9.27;;
10347;SDS011;5220;43.192;23.284;2022-12-29T07:27:28;14.60;;;10.50;;
10347;SDS011;5220;43.192;23.284;2022-12-29T07:29:55;13.63;;;9.80;;
10347;SDS011;5220;43.192;23.284;2022-12-29T07:32:22;17.57;;;9.87;;
10347;SDS011;5220;43.192;23.284;2022-12-29T07:34:49;15.93;;;5.90;;
10347;SDS011;5220;43.192;23.284;2022-12-29T07:37:15;8.60;;;5.87;;
10347;SDS011;5220;43.192;23.284;2022-12-29T07:49:18;5.83;;;4.23;;
10347;SDS011;5220;43.192;23.284;2022-12-29T07:51:45;7.20;;;5.53;;
10347;SDS011;5220;43.192;23.284;2022-12-29T07:54:12;7.33;;;5.10;;
10347;SDS011;5220;43.192;23.284;2022-12-29T07:56:39;11.40;;;6.00;;
10347;SDS011;5220;43.192;23.284;2022-12-29T07:59:06;13.07;;;9.07;;
10347;SDS011;5220;43.192;23.284;2022-12-29T08:01:33;14.20;;;7.50;;
10347;SDS011;5220;43.192;23.284;2022-12-29T08:04:01;14.97;;;9.20;;
10347;SDS011;5220;43.192;23.284;2022-12-29T08:06:27;20.80;;;14.63;;
10347;SDS011;5220;43.192;23.284;2022-12-29T08:08:55;21.07;;;14.27;;
10347;SDS011;5220;43.192;23.284;2022-12-29T08:11:22;29.87;;;18.30;;
10347;SDS011;5220;43.192;23.284;2022-12-29T08:13:49;27.83;;;18.63;;
10347;SDS011;5220;43.192;23.284;2022-12-29T08:16:16;25.57;;;16.97;;
10347;SDS011;5220;43.192;23.284;2022-12-29T08:18:43;25.60;;;15.97;;
10347;SDS011;5220;43.192;23.284;2022-12-29T08:21:11;26.27;;;16.77;;
10347;SDS011;5220;43.192;23.284;2022-12-29T08:23:38;24.70;;;16.77;;
10347;SDS011;5220;43.192;23.284;2022-12-29T08:26:05;19.83;;;14.23;;
10347;SDS011;5220;43.192;23.284;2022-12-29T08:28:32;17.27;;;11.13;;
10347;SDS011;5220;43.192;23.284;2022-12-29T08:33:49;14.50;;;9.03;;
10347;SDS011;5220;43.192;23.284;2022-12-29T08:36:18;15.10;;;7.87;;
10347;SDS011;5220;43.192;23.284;2022-12-29T08:38:44;15.37;;;9.57;;
10347;SDS011;5220;43.192;23.284;2022-12-29T08:44:33;16.10;;;9.93;;
10347;SDS011;5220;43.192;23.284;2022-12-29T08:47:00;16.77;;;10.47;;
10347;SDS011;5220;43.192;23.284;2022-12-29T08:49:27;18.97;;;12.57;;
10347;SDS011;5220;43.192;23.284;2022-12-29T08:51:55;24.23;;;16.33;;
10347;SDS011;5220;43.192;23.284;2022-12-29T08:54:22;35.23;;;20.00;;
10347;SDS011;5220;43.192;23.284;2022-12-29T08:56:48;28.60;;;18.90;;
10347;SDS011;5220;43.192;23.284;2022-12-29T08:59:15;26.33;;;16.83;;
10347;SDS011;5220;43.192;23.284;2022-12-29T09:01:42;27.63;;;16.90;;
10347;SDS011;5220;43.192;23.284;2022-12-29T09:04:08;27.97;;;17.30;;
10347;SDS011;5220;43.192;23.284;2022-12-29T09:06:35;25.90;;;15.80;;
10347;SDS011;5220;43.192;23.284;2022-12-29T09:09:03;25.50;;;17.10;;
10347;SDS011;5220;43.192;23.284;2022-12-29T09:11:30;34.87;;;21.87;;
10347;SDS011;5220;43.192;23.284;2022-12-29T09:13:57;28.97;;;17.67;;
10347;SDS011;5220;43.192;23.284;2022-12-29T09:19:58;13.63;;;9.67;;
10347;SDS011;5220;43.192;23.284;2022-12-29T09:22:24;15.63;;;9.90;;
10347;SDS011;5220;43.192;23.284;2022-12-29T09:24:53;16.07;;;9.00;;
10347;SDS011;5220;43.192;23.284;2022-12-29T09:27:19;13.77;;;9.17;;
10347;SDS011;5220;43.192;23.284;2022-12-29T09:29:46;17.53;;;12.20;;
10347;SDS011;5220;43.192;23.284;2022-12-29T09:32:13;19.73;;;12.63;;
10347;SDS011;5220;43.192;23.284;2022-12-29T09:34:39;17.80;;;12.67;;
10347;SDS011;5220;43.192;23.284;2022-12-29T09:37:06;22.53;;;14.57;;
10347;SDS011;5220;43.192;23.284;2022-12-29T09:39:33;22.07;;;13.60;;
10347;SDS011;5220;43.192;23.284;2022-12-29T09:42:03;18.30;;;12.47;;
10347;SDS011;5220;43.192;23.284;2022-12-29T09:44:41;20.40;;;13.60;;
10347;SDS011;5220;43.192;23.284;2022-12-29T09:57:03;21.73;;;15.83;;
10347;SDS011;5220;43.192;23.284;2022-12-29T09:59:38;20.10;;;14.70;;
10347;SDS011;5220;43.192;23.284;2022-12-29T10:02:12;19.13;;;14.17;;
10347;SDS011;5220;43.192;23.284;2022-12-29T10:04:49;20.57;;;12.63;;
10347;SDS011;5220;43.192;23.284;2022-12-29T10:07:20;16.87;;;11.90;;
10347;SDS011;5220;43.192;23.284;2022-12-29T10:09:56;15.70;;;11.77;;
10347;SDS011;5220;43.192;23.284;2022-12-29T10:15:43;19.37;;;12.20;;
10347;SDS011;5220;43.192;23.284;2022-12-29T10:18:31;15.73;;;10.70;;
10347;SDS011;5220;43.192;23.284;2022-12-29T10:21:13;14.87;;;10.33;;
10347;SDS011;5220;43.192;23.284;2022-12-29T10:23:49;16.00;;;11.83;;
10347;SDS011;5220;43.192;23.284;2022-12-29T10:26:18;16.63;;;11.15;;
10347;SDS011;5220;43.192;23.284;2022-12-29T10:28:48;14.20;;;10.40;;
10347;SDS011;5220;43.192;23.284;2022-12-29T10:34:42;14.07;;;9.23;;
10347;SDS011;5220;43.192;23.284;2022-12-29T10:37:14;11.02;;;8.27;;
10347;SDS011;5220;43.192;23.284;2022-12-29T10:39:51;12.35;;;8.57;;
10347;SDS011;5220;43.192;23.284;2022-12-29T10:42:20;19.07;;;11.87;;
10347;SDS011;5220;43.192;23.284;2022-12-29T10:44:53;19.27;;;11.15;;
10347;SDS011;5220;43.192;23.284;2022-12-29T10:47:20;12.10;;;9.07;;
10347;SDS011;5220;43.192;23.284;2022-12-29T10:49:52;23.90;;;15.43;;
10347;SDS011;5220;43.192;23.284;2022-12-29T10:52:20;14.95;;;10.18;;
10347;SDS011;5220;43.192;23.284;2022-12-29T10:54:50;16.17;;;10.18;;
10347;SDS011;5220;43.192;23.284;2022-12-29T10:57:24;13.73;;;9.45;;
10347;SDS011;5220;43.192;23.284;2022-12-29T10:59:53;16.30;;;10.57;;
10347;SDS011;5220;43.192;23.284;2022-12-29T11:02:29;19.23;;;10.50;;
10347;SDS011;5220;43.192;23.284;2022-12-29T11:05:15;15.25;;;9.18;;
10347;SDS011;5220;43.192;23.284;2022-12-29T11:07:49;12.18;;;8.90;;
10347;SDS011;5220;43.192;23.284;2022-12-29T11:13:46;14.27;;;10.55;;
10347;SDS011;5220;43.192;23.284;2022-12-29T11:16:15;13.80;;;9.77;;
10347;SDS011;5220;43.192;23.284;2022-12-29T11:18:55;12.77;;;9.60;;
10347;SDS011;5220;43.192;23.284;2022-12-29T11:24:18;14.93;;;10.80;;
10347;SDS011;5220;43.192;23.284;2022-12-29T11:26:48;15.07;;;9.68;;
10347;SDS011;5220;43.192;23.284;2022-12-29T11:29:21;29.10;;;17.15;;
10347;SDS011;5220;43.192;23.284;2022-12-29T11:31:53;14.25;;;10.85;;
10347;SDS011;5220;43.192;23.284;2022-12-29T11:34:23;13.70;;;9.40;;
10347;SDS011;5220;43.192;23.284;2022-12-29T11:36:53;11.90;;;8.63;;
10347;SDS011;5220;43.192;23.284;2022-12-29T11:39:29;10.60;;;8.15;;
10347;SDS011;5220;43.192;23.284;2022-12-29T11:41:59;11.88;;;8.27;;
10347;SDS011;5220;43.192;23.284;2022-12-29T11:44:27;16.13;;;10.10;;
10347;SDS011;5220;43.192;23.284;2022-12-29T11:47:00;14.75;;;8.77;;
10347;SDS011;5220;43.192;23.284;2022-12-29T11:49:27;12.32;;;8.35;;
10347;SDS011;5220;43.192;23.284;2022-12-29T11:51:55;16.25;;;11.18;;
10347;SDS011;5220;43.192;23.284;2022-12-29T11:54:24;10.32;;;6.97;;
10347;SDS011;5220;43.192;23.284;2022-12-29T11:56:53;12.13;;;8.25;;
10347;SDS011;5220;43.192;23.284;2022-12-29T11:59:33;12.55;;;7.95;;
10347;SDS011;5220;43.192;23.284;2022-12-29T12:02:09;12.52;;;7.55;;
10347;SDS011;5220;43.192;23.284;2022-12-29T12:04:46;15.65;;;10.18;;
10347;SDS011;5220;43.192;23.284;2022-12-29T12:07:17;15.05;;;9.93;;
10347;SDS011;5220;43.192;23.284;2022-12-29T12:13:11;15.00;;;9.60;;
10347;SDS011;5220;43.192;23.284;2022-12-29T12:15:47;16.13;;;10.68;;
10347;SDS011;5220;43.192;23.284;2022-12-29T12:18:19;11.00;;;8.07;;
10347;SDS011;5220;43.192;23.284;2022-12-29T12:20:54;13.85;;;8.30;;
10347;SDS011;5220;43.192;23.284;2022-12-29T12:23:30;10.48;;;7.70;;
10347;SDS011;5220;43.192;23.284;2022-12-29T12:26:04;13.27;;;9.20;;
10347;SDS011;5220;43.192;23.284;2022-12-29T12:28:40;14.05;;;10.30;;
10347;SDS011;5220;43.192;23.284;2022-12-29T12:34:32;12.77;;;9.25;;
10347;SDS011;5220;43.192;23.284;2022-12-29T12:37:06;14.27;;;9.02;;
10347;SDS011;5220;43.192;23.284;2022-12-29T12:39:49;11.70;;;8.85;;
10347;SDS011;5220;43.192;23.284;2022-12-29T12:42:35;9.95;;;7.13;;
10347;SDS011;5220;43.192;23.284;2022-12-29T12:48:16;12.93;;;8.93;;
10347;SDS011;5220;43.192;23.284;2022-12-29T12:54:02;16.73;;;10.35;;
10347;SDS011;5220;43.192;23.284;2022-12-29T12:56:57;17.40;;;11.75;;
10347;SDS011;5220;43.192;23.284;2022-12-29T12:59:37;16.58;;;10.50;;
10347;SDS011;5220;43.192;23.284;2022-12-29T13:02:32;13.70;;;8.88;;
10347;SDS011;5220;43.192;23.284;2022-12-29T13:05:10;15.45;;;10.25;;
10347;SDS011;5220;43.192;23.284;2022-12-29T13:07:50;16.77;;;11.70;;
10347;SDS011;5220;43.192;23.284;2022-12-29T13:13:28;17.20;;;11.13;;
10347;SDS011;5220;43.192;23.284;2022-12-29T13:16:12;18.08;;;11.82;;
10347;SDS011;5220;43.192;23.284;2022-12-29T13:18:50;23.25;;;14.30;;
10347;SDS011;5220;43.192;23.284;2022-12-29T13:24:49;17.67;;;9.23;;
10347;SDS011;5220;43.192;23.284;2022-12-29T13:27:23;17.27;;;10.43;;
10347;SDS011;5220;43.192;23.284;2022-12-29T13:30:02;14.80;;;9.68;;
10347;SDS011;5220;43.192;23.284;2022-12-29T13:32:37;15.80;;;11.40;;
10347;SDS011;5220;43.192;23.284;2022-12-29T13:35:22;16.13;;;10.80;;
10347;SDS011;5220;43.192;23.284;2022-12-29T13:38:08;11.77;;;8.23;;
10347;SDS011;5220;43.192;23.284;2022-12-29T13:43:59;17.52;;;10.23;;
10347;SDS011;5220;43.192;23.284;2022-12-29T13:46:31;19.42;;;13.07;;
10347;SDS011;5220;43.192;23.284;2022-12-29T13:49:04;14.07;;;9.35;;
10347;SDS011;5220;43.192;23.284;2022-12-29T13:51:37;15.73;;;10.57;;
10347;SDS011;5220;43.192;23.284;2022-12-29T13:54:14;12.60;;;8.00;;
10347;SDS011;5220;43.192;23.284;2022-12-29T13:56:52;14.57;;;9.38;;
10347;SDS011;5220;43.192;23.284;2022-12-29T13:59:28;14.18;;;9.27;;
10347;SDS011;5220;43.192;23.284;2022-12-29T14:02:09;14.57;;;8.60;;
10347;SDS011;5220;43.192;23.284;2022-12-29T14:04:55;11.55;;;7.88;;
10347;SDS011;5220;43.192;23.284;2022-12-29T14:07:24;10.88;;;8.43;;
10347;SDS011;5220;43.192;23.284;2022-12-29T14:09:51;14.93;;;9.70;;
10347;SDS011;5220;43.192;23.284;2022-12-29T14:12:20;14.35;;;10.50;;
10347;SDS011;5220;43.192;23.284;2022-12-29T14:14:53;12.63;;;10.63;;
10347;SDS011;5220;43.192;23.284;2022-12-29T14:17:21;16.77;;;9.95;;
10347;SDS011;5220;43.192;23.284;2022-12-29T14:22:55;15.65;;;11.32;;
10347;SDS011;5220;43.192;23.284;2022-12-29T14:28:25;15.02;;;10.32;;
10347;SDS011;5220;43.192;23.284;2022-12-29T14:34:22;18.02;;;11.35;;
10347;SDS011;5220;43.192;23.284;2022-12-29T14:36:57;22.65;;;11.80;;
10347;SDS011;5220;43.192;23.284;2022-12-29T14:39:28;29.92;;;12.27;;
10347;SDS011;5220;43.192;23.284;2022-12-29T14:42:01;19.03;;;12.13;;
10347;SDS011;5220;43.192;23.284;2022-12-29T14:44:30;24.27;;;11.35;;
10347;SDS011;5220;43.192;23.284;2022-12-29T14:46:59;22.60;;;14.00;;
10347;SDS011;5220;43.192;23.284;2022-12-29T14:49:33;23.37;;;13.27;;
10347;SDS011;5220;43.192;23.284;2022-12-29T14:52:07;19.83;;;13.50;;
10347;SDS011;5220;43.192;23.284;2022-12-29T14:54:45;19.53;;;11.70;;
10347;SDS011;5220;43.192;23.284;2022-12-29T15:00:05;17.37;;;10.80;;
10347;SDS011;5220;43.192;23.284;2022-12-29T15:02:36;21.60;;;14.10;;
10347;SDS011;5220;43.192;23.284;2022-12-29T15:05:18;32.40;;;16.97;;
10347;SDS011;5220;43.192;23.284;2022-12-29T15:07:59;27.07;;;16.47;;
10347;SDS011;5220;43.192;23.284;2022-12-29T15:13:13;18.10;;;11.23;;
10347;SDS011;5220;43.192;23.284;2022-12-29T15:15:42;25.30;;;13.70;;
10347;SDS011;5220;43.192;23.284;2022-12-29T15:18:13;44.80;;;21.37;;
10347;SDS011;5220;43.192;23.284;2022-12-29T15:27:26;41.37;;;22.10;;
10347;SDS011;5220;43.192;23.284;2022-12-29T15:29:57;81.93;;;41.53;;
10347;SDS011;5220;43.192;23.284;2022-12-29T15:32:27;67.70;;;33.60;;
10347;SDS011;5220;43.192;23.284;2022-12-29T15:34:56;54.23;;;29.13;;
10347;SDS011;5220;43.192;23.284;2022-12-29T15:37:26;51.67;;;26.70;;
10347;SDS011;5220;43.192;23.284;2022-12-29T15:39:54;46.07;;;24.43;;
10347;SDS011;5220;43.192;23.284;2022-12-29T15:42:25;44.27;;;23.30;;
10347;SDS011;5220;43.192;23.284;2022-12-29T15:45:05;53.17;;;28.73;;
10347;SDS011;5220;43.192;23.284;2022-12-29T15:47:35;40.47;;;21.70;;
10347;SDS011;5220;43.192;23.284;2022-12-29T15:50:03;38.80;;;18.93;;
10347;SDS011;5220;43.192;23.284;2022-12-29T15:52:33;24.70;;;12.43;;
10347;SDS011;5220;43.192;23.284;2022-12-29T15:55:00;47.40;;;22.47;;
10347;SDS011;5220;43.192;23.284;2022-12-29T15:57:28;18.97;;;11.23;;
10347;SDS011;5220;43.192;23.284;2022-12-29T16:03:24;15.37;;;9.50;;
10347;SDS011;5220;43.192;23.284;2022-12-29T16:05:53;14.97;;;9.43;;
10347;SDS011;5220;43.192;23.284;2022-12-29T16:08:24;11.17;;;6.07;;
10347;SDS011;5220;43.192;23.284;2022-12-29T16:10:57;11.43;;;7.70;;
10347;SDS011;5220;43.192;23.284;2022-12-29T16:13:28;9.43;;;6.30;;
10347;SDS011;5220;43.192;23.284;2022-12-29T16:15:59;16.80;;;9.20;;
10347;SDS011;5220;43.192;23.284;2022-12-29T16:18:29;7.37;;;5.50;;
10347;SDS011;5220;43.192;23.284;2022-12-29T16:21:00;8.30;;;4.93;;
10347;SDS011;5220;43.192;23.284;2022-12-29T16:23:28;10.07;;;6.83;;
10347;SDS011;5220;43.192;23.284;2022-12-29T16:29:01;8.47;;;6.20;;
10347;SDS011;5220;43.192;23.284;2022-12-29T16:31:33;11.27;;;6.00;;
10347;SDS011;5220;43.192;23.284;2022-12-29T16:34:10;13.03;;;6.77;;
10347;SDS011;5220;43.192;23.284;2022-12-29T16:36:51;11.93;;;6.73;;
10347;SDS011;5220;43.192;23.284;2022-12-29T16:39:21;11.20;;;7.27;;
10347;SDS011;5220;43.192;23.284;2022-12-29T16:41:52;13.13;;;6.67;;
10347;SDS011;5220;43.192;23.284;2022-12-29T16:44:21;8.47;;;4.90;;
10347;SDS011;5220;43.192;23.284;2022-12-29T16:46:57;9.60;;;5.33;;
10347;SDS011;5220;43.192;23.284;2022-12-29T16:52:54;13.60;;;6.07;;
10347;SDS011;5220;43.192;23.284;2022-12-29T16:55:21;10.53;;;5.27;;
10347;SDS011;5220;43.192;23.284;2022-12-29T16:57:48;10.27;;;5.30;;
10347;SDS011;5220;43.192;23.284;2022-12-29T17:00:21;16.40;;;9.63;;
10347;SDS011;5220;43.192;23.284;2022-12-29T17:02:49;10.60;;;7.10;;
10347;SDS011;5220;43.192;23.284;2022-12-29T17:05:19;9.70;;;5.00;;
10347;SDS011;5220;43.192;23.284;2022-12-29T17:07:46;7.07;;;4.67;;
10347;SDS011;5220;43.192;23.284;2022-12-29T17:13:33;8.87;;;4.53;;
10347;SDS011;5220;43.192;23.284;2022-12-29T17:16:02;8.40;;;4.53;;
10347;SDS011;5220;43.192;23.284;2022-12-29T17:18:30;9.77;;;4.83;;
10347;SDS011;5220;43.192;23.284;2022-12-29T17:24:19;7.63;;;4.80;;
10347;SDS011;5220;43.192;23.284;2022-12-29T17:26:48;8.33;;;5.40;;
10347;SDS011;5220;43.192;23.284;2022-12-29T17:29:18;11.00;;;5.40;;
10347;SDS011;5220;43.192;23.284;2022-12-29T17:31:58;11.20;;;6.40;;
10347;SDS011;5220;43.192;23.284;2022-12-29T17:34:26;12.07;;;7.00;;